createdAt,value
2023-04-05T00:02:02.988Z,98393.91
2023-04-05T00:04:34.867Z,98390.83
2023-04-05T00:07:08.326Z,98389.73
2023-04-05T00:09:36.716Z,98390.91
2023-04-05T00:12:10.704Z,98390.08
2023-04-05T00:14:44.142Z,98391.55
2023-04-05T00:17:13.466Z,98395.15
2023-04-05T00:19:43.246Z,98389.66
2023-04-05T00:22:12.626Z,98390.60
2023-04-05T00:24:43.609Z,98387.35
2023-04-05T00:27:14.743Z,98385.64
2023-04-05T00:29:43.613Z,98381.73
2023-04-05T00:32:12.092Z,98377.17
2023-04-05T00:34:41.918Z,98373.58
2023-04-05T00:37:11.986Z,98376.98
2023-04-05T00:39:40.364Z,98378.38
2023-04-05T00:42:09.433Z,98378.07
2023-04-05T00:44:37.689Z,98378.21
2023-04-05T00:47:09.128Z,98379.97
2023-04-05T00:49:37.844Z,98377.96
2023-04-05T00:52:06.784Z,98379.20
2023-04-05T00:54:35.086Z,98377.95
2023-04-05T00:57:03.703Z,98377.23
2023-04-05T00:59:35.809Z,98376.58
2023-04-05T01:02:19.943Z,98373.67
2023-04-05T01:04:50.920Z,98370.12
2023-04-05T01:07:31.850Z,98372.95
2023-04-05T01:10:00.952Z,98373.84
2023-04-05T01:12:33.211Z,98376.21
2023-04-05T01:15:01.488Z,98375.36
2023-04-05T01:17:36.979Z,98373.98
2023-04-05T01:20:10.419Z,98372.48
2023-04-05T01:23:02.663Z,98377.61
2023-04-05T01:25:54.413Z,98375.83
2023-04-05T01:28:42.088Z,98374.56
2023-04-05T01:31:19.933Z,98377.27
2023-04-05T01:34:38.453Z,98378.88
2023-04-05T01:37:08.242Z,98374.99
2023-04-05T01:39:36.818Z,98378.50
2023-04-05T01:42:06.310Z,98376.53
2023-04-05T01:44:36.903Z,98373.23
2023-04-05T01:47:05.415Z,98375.15
2023-04-05T01:49:33.589Z,98371.08
2023-04-05T01:52:01.869Z,98367.11
2023-04-05T01:54:32.514Z,98365.59
2023-04-05T01:57:01.124Z,98361.41
2023-04-05T01:59:29.592Z,98361.36
2023-04-05T02:01:58.357Z,98363.91
2023-04-05T02:04:27.778Z,98365.02
2023-04-05T02:06:57.226Z,98364.64
2023-04-05T02:09:25.772Z,98367.38
2023-04-05T02:13:49.086Z,98368.50
2023-04-05T02:16:18.613Z,98364.39
2023-04-05T02:18:51.160Z,98365.21
2023-04-05T02:21:23.459Z,98365.05
2023-04-05T02:23:55.280Z,98367.17
2023-04-05T02:26:23.521Z,98370.93
2023-04-05T02:28:54.758Z,98374.69
2023-04-05T02:31:23.278Z,98377.34
2023-04-05T02:33:51.568Z,98376.23
2023-04-05T02:36:19.860Z,98377.39
2023-04-05T02:38:48.504Z,98374.38
2023-04-05T02:41:18.556Z,98373.25
2023-04-05T02:43:47.439Z,98366.14
2023-04-05T02:46:16.330Z,98366.77
2023-04-05T02:48:45.852Z,98364.79
2023-04-05T02:51:15.060Z,98366.39
2023-04-05T02:53:45.077Z,98364.95
2023-04-05T02:56:15.228Z,98364.05
2023-04-05T02:58:49.733Z,98367.25
2023-04-05T03:01:20.979Z,98369.09
2023-04-05T03:03:51.166Z,98365.05
2023-04-05T03:06:21.997Z,98367.09
2023-04-05T03:08:51.589Z,98368.52
2023-04-05T03:11:22.700Z,98372.48
2023-04-05T03:13:56.595Z,98370.59
2023-04-05T03:16:44.774Z,98371.27
2023-04-05T03:19:22.640Z,98366.33
2023-04-05T03:21:53.485Z,98364.92
2023-04-05T03:24:29.268Z,98363.46
2023-04-05T03:27:02.745Z,98363.42
2023-04-05T03:29:33.082Z,98367.11
2023-04-05T03:32:05.872Z,98363.86
2023-04-05T03:34:34.830Z,98364.86
2023-04-05T03:37:04.170Z,98367.69
2023-04-05T03:39:40.153Z,98363.27
2023-04-05T03:42:08.235Z,98362.45
2023-04-05T03:44:36.951Z,98362.80
2023-04-05T03:47:08.053Z,98358.07
2023-04-05T03:49:37.408Z,98359.90
2023-04-05T03:52:05.617Z,98360.67
2023-04-05T03:54:33.861Z,98361.89
2023-04-05T03:57:03.099Z,98361.92
2023-04-05T03:59:38.608Z,98361.05
2023-04-05T04:02:07.996Z,98360.70
2023-04-05T04:04:36.656Z,98364.39
2023-04-05T04:07:05.950Z,98363.48
2023-04-05T04:09:34.477Z,98363.88
2023-04-05T04:12:08.462Z,98359.28
2023-04-05T04:14:43.242Z,98361.20
2023-04-05T04:17:34.774Z,98364.58
2023-04-05T04:20:26.656Z,98365.28
2023-04-05T04:23:30.659Z,98360.95
2023-04-05T04:26:29.362Z,98359.41
2023-04-05T04:29:16.426Z,98354.39
2023-04-05T04:32:27.322Z,98353.09
2023-04-05T04:35:05.297Z,98349.77
2023-04-05T04:38:04.918Z,98357.72
2023-04-05T04:40:47.773Z,98357.70
2023-04-05T04:43:26.915Z,98358.89
2023-04-05T04:46:19.326Z,98363.38
2023-04-05T04:49:06.069Z,98367.59
2023-04-05T04:51:37.952Z,98369.14
2023-04-05T04:54:06.555Z,98371.95
2023-04-05T04:56:36.085Z,98375.32
2023-04-05T04:59:04.226Z,98369.84
2023-04-05T05:01:34.275Z,98371.45
2023-04-05T05:05:50.291Z,98370.62
2023-04-05T05:08:22.037Z,98366.00
2023-04-05T05:10:53.618Z,98366.66
2023-04-05T05:13:22.516Z,98369.75
2023-04-05T05:15:51.947Z,98369.80
2023-04-05T05:18:20.221Z,98371.38
2023-04-05T05:20:53.254Z,98366.63
2023-04-05T05:23:21.503Z,98369.33
2023-04-05T05:25:49.875Z,98372.09
2023-04-05T05:28:18.333Z,98369.94
2023-04-05T05:30:55.932Z,98372.96
2023-04-05T05:33:25.954Z,98369.75
2023-04-05T05:35:54.088Z,98371.08
2023-04-05T05:38:22.622Z,98370.02
2023-04-05T05:40:57.913Z,98375.56
2023-04-05T05:43:26.615Z,98377.02
2023-04-05T05:45:54.844Z,98379.11
2023-04-05T05:48:23.537Z,98378.44
2023-04-05T05:50:52.457Z,98378.16
2023-04-05T05:53:22.355Z,98378.84
2023-04-05T05:55:50.624Z,98379.59
2023-04-05T05:58:19.449Z,98371.73
2023-04-05T06:00:49.963Z,98371.73
2023-04-05T06:03:19.804Z,98377.15
2023-04-05T06:05:54.685Z,98376.20
2023-04-05T06:08:25.685Z,98373.02
2023-04-05T06:10:55.250Z,98374.91
2023-04-05T06:13:24.423Z,98377.61
2023-04-05T06:15:59.316Z,98380.27
2023-04-05T06:18:28.125Z,98378.61
2023-04-05T06:20:56.538Z,98382.09
2023-04-05T06:23:27.191Z,98381.63
2023-04-05T06:25:57.136Z,98377.70
2023-04-05T06:28:25.389Z,98380.02
2023-04-05T06:30:54.446Z,98381.50
2023-04-05T06:33:23.631Z,98382.45
2023-04-05T06:35:51.802Z,98379.42
2023-04-05T06:38:21.141Z,98381.80
2023-04-05T06:40:50.026Z,98380.42
2023-04-05T06:43:18.337Z,98382.33
2023-04-05T06:45:46.600Z,98387.55
2023-04-05T06:48:21.437Z,98391.98
2023-04-05T06:51:02.752Z,98390.70
2023-04-05T06:53:31.217Z,98394.71
2023-04-05T06:56:00.707Z,98402.81
2023-04-05T06:58:29.512Z,98403.16
2023-04-05T07:00:58.185Z,98403.61
2023-04-05T07:03:28.500Z,98401.58
2023-04-05T07:06:02.866Z,98401.36
2023-04-05T07:08:34.510Z,98403.11
2023-04-05T07:11:02.806Z,98403.68
2023-04-05T07:13:32.194Z,98400.49
2023-04-05T07:16:01.917Z,98395.25
2023-04-05T07:18:31.187Z,98398.76
2023-04-05T07:21:03.961Z,98397.66
2023-04-05T07:23:34.878Z,98400.67
2023-04-05T07:26:08.488Z,98399.52
2023-04-05T07:28:39.685Z,98404.43
2023-04-05T07:31:08.116Z,98401.85
2023-04-05T07:33:36.743Z,98405.29
2023-04-05T07:36:05.652Z,98402.70
2023-04-05T07:38:34.651Z,98403.27
2023-04-05T07:41:03.100Z,98405.27
2023-04-05T07:43:31.313Z,98407.23
2023-04-05T07:46:03.454Z,98410.12
2023-04-05T07:48:31.949Z,98408.84
2023-04-05T07:51:07.355Z,98411.92
2023-04-05T07:53:37.144Z,98411.14
2023-04-05T07:56:12.429Z,98406.69
2023-04-05T07:58:41.444Z,98408.34
2023-04-05T08:01:10.292Z,98406.48
2023-04-05T08:03:40.190Z,98402.05
2023-04-05T08:06:11.603Z,98397.25
2023-04-05T08:08:40.931Z,98396.98
2023-04-05T08:11:12.125Z,98392.55
2023-04-05T08:13:43.922Z,98395.58
2023-04-05T08:16:12.382Z,98394.39
2023-04-05T08:21:41.115Z,98381.86
2023-04-05T08:24:09.486Z,98383.48
2023-04-05T08:26:42.098Z,98388.18
2023-04-05T08:29:11.536Z,98389.44
2023-04-05T08:31:40.937Z,98391.19
2023-04-05T08:34:09.873Z,98394.38
2023-04-05T08:36:38.066Z,98392.95
2023-04-05T08:39:06.751Z,98394.71
2023-04-05T08:41:37.199Z,98395.14
2023-04-05T08:44:07.290Z,98395.98
2023-04-05T08:46:35.614Z,98399.95
2023-04-05T08:49:08.221Z,98397.63
2023-04-05T08:51:39.529Z,98397.73
2023-04-05T08:54:10.162Z,98394.13
2023-04-05T08:56:38.833Z,98392.59
2023-04-05T08:59:12.450Z,98391.91
2023-04-05T09:01:44.746Z,98388.51
2023-04-05T09:04:24.550Z,98386.67
2023-04-05T09:06:53.680Z,98382.02
2023-04-05T09:09:21.998Z,98380.39
2023-04-05T09:11:52.227Z,98379.60
2023-04-05T09:14:20.993Z,98381.81
2023-04-05T09:16:53.966Z,98379.94
2023-04-05T09:19:24.842Z,98381.09
2023-04-05T09:22:06.973Z,98376.82
2023-04-05T09:24:42.277Z,98371.17
2023-04-05T09:27:12.378Z,98369.58
2023-04-05T09:29:45.397Z,98361.34
2023-04-05T09:32:15.360Z,98360.54
2023-04-05T09:34:52.511Z,98360.77
2023-04-05T09:37:33.587Z,98360.13
2023-04-05T09:40:04.395Z,98363.84
2023-04-05T09:42:45.023Z,98365.73
2023-04-05T09:45:18.935Z,98363.51
2023-04-05T09:48:00.552Z,98359.59
2023-04-05T09:50:31.128Z,98354.64
2023-04-05T09:53:16.682Z,98358.99
2023-04-05T09:55:46.694Z,98355.27
2023-04-05T09:58:21.469Z,98349.08
2023-04-05T10:01:00.009Z,98349.68
2023-04-05T10:03:41.547Z,98347.96
2023-04-05T10:06:10.209Z,98337.91
2023-04-05T10:08:38.731Z,98341.71
2023-04-05T10:11:07.149Z,98339.19
2023-04-05T10:13:35.385Z,98336.99
2023-04-05T10:16:04.457Z,98339.09
2023-04-05T10:18:43.419Z,98344.02
2023-04-05T10:21:12.620Z,98340.23
2023-04-05T10:23:44.217Z,98341.74
2023-04-05T10:26:32.211Z,98344.59
2023-04-05T10:29:10.387Z,98348.01
2023-04-05T10:31:48.206Z,98338.98
2023-04-05T10:34:27.537Z,98344.73
2023-04-05T10:37:02.082Z,98340.55
2023-04-05T10:39:52.784Z,98337.98
2023-04-05T10:42:28.578Z,98338.16
2023-04-05T10:45:11.818Z,98334.03
2023-04-05T10:47:55.979Z,98336.52
2023-04-05T10:50:27.231Z,98341.05
2023-04-05T10:53:09.155Z,98342.08
2023-04-05T10:55:40.170Z,98348.71
2023-04-05T10:58:11.016Z,98343.70
2023-04-05T11:00:41.955Z,98342.31
2023-04-05T11:03:11.682Z,98343.55
2023-04-05T11:05:46.708Z,98345.98
2023-04-05T11:08:16.505Z,98343.02
2023-04-05T11:10:50.866Z,98345.14
2023-04-05T11:13:20.834Z,98343.83
2023-04-05T11:16:17.218Z,98341.82
2023-04-05T11:18:52.576Z,98336.98
2023-04-05T11:21:25.989Z,98332.70
2023-04-05T11:24:07.228Z,98330.27
2023-04-05T11:26:48.971Z,98334.64
2023-04-05T11:29:17.735Z,98331.44
2023-04-05T11:32:00.468Z,98330.17
2023-04-05T11:34:29.093Z,98326.23
2023-04-05T11:36:58.077Z,98328.61
2023-04-05T11:39:28.778Z,98328.92
2023-04-05T11:42:24.094Z,98326.50
2023-04-05T11:44:54.686Z,98325.21
2023-04-05T11:47:32.044Z,98320.88
2023-04-05T11:52:48.453Z,98325.41
2023-04-05T11:55:17.594Z,98314.55
2023-04-05T11:57:46.257Z,98313.89
2023-04-05T12:00:16.091Z,98316.03
2023-04-05T12:02:45.463Z,98314.30
2023-04-05T12:05:14.194Z,98317.10
2023-04-05T12:07:42.965Z,98313.84
2023-04-05T12:10:20.943Z,98316.77
2023-04-05T12:12:49.908Z,98316.00
2023-04-05T12:15:19.175Z,98312.05
2023-04-05T12:17:56.049Z,98309.63
2023-04-05T12:20:28.739Z,98302.33
2023-04-05T12:23:02.381Z,98302.20
2023-04-05T12:25:31.807Z,98304.77
2023-04-05T12:28:09.778Z,98305.48
2023-04-05T12:30:38.684Z,98303.61
2023-04-05T12:33:10.940Z,98308.10
2023-04-05T12:35:39.394Z,98305.21
2023-04-05T12:38:10.417Z,98305.36
2023-04-05T12:40:40.751Z,98302.34
2023-04-05T12:43:09.272Z,98302.51
2023-04-05T12:45:42.367Z,98304.16
2023-04-05T12:48:14.126Z,98301.84
2023-04-05T12:50:46.632Z,98298.12
2023-04-05T12:53:18.396Z,98296.97
2023-04-05T12:55:54.177Z,98295.19
2023-04-05T12:58:23.796Z,98292.09
2023-04-05T13:00:52.039Z,98292.67
2023-04-05T13:03:21.718Z,98288.09
2023-04-05T13:05:51.477Z,98282.26
2023-04-05T13:08:20.027Z,98281.30
2023-04-05T13:10:49.085Z,98277.41
2023-04-05T13:13:17.783Z,98272.64
2023-04-05T13:15:46.159Z,98267.45
2023-04-05T13:18:14.886Z,98273.39
2023-04-05T13:20:47.571Z,98274.50
2023-04-05T13:23:16.076Z,98268.73
2023-04-05T13:25:47.232Z,98265.88
2023-04-05T13:28:15.512Z,98260.98
2023-04-05T13:30:43.731Z,98263.65
2023-04-05T13:33:13.309Z,98266.10
2023-04-05T13:35:42.316Z,98261.52
2023-04-05T13:38:11.280Z,98261.38
2023-04-05T13:40:39.873Z,98253.13
2023-04-05T13:43:08.342Z,98250.83
2023-04-05T13:45:39.906Z,98245.14
2023-04-05T13:48:08.437Z,98245.41
2023-04-05T13:50:40.814Z,98242.77
2023-04-05T13:53:09.472Z,98237.36
2023-04-05T13:55:38.339Z,98234.27
2023-04-05T13:58:11.663Z,98237.28
2023-04-05T14:00:40.772Z,98235.10
2023-04-05T14:03:09.727Z,98239.02
2023-04-05T14:05:38.373Z,98226.90
2023-04-05T14:08:06.459Z,98230.08
2023-04-05T14:10:37.935Z,98226.34
2023-04-05T14:13:06.904Z,98225.22
2023-04-05T14:15:36.053Z,98224.14
2023-04-05T14:18:05.633Z,98232.66
2023-04-05T14:20:34.228Z,98233.95
2023-04-05T14:23:02.691Z,98230.21
2023-04-05T14:25:34.969Z,98231.52
2023-04-05T14:28:03.379Z,98229.59
2023-04-05T14:31:57.501Z,98224.42
2023-04-05T14:34:28.870Z,98225.63
2023-04-05T14:36:58.521Z,98225.70
2023-04-05T14:39:28.877Z,98225.56
2023-04-05T14:41:59.992Z,98230.07
2023-04-05T14:44:29.509Z,98230.63
2023-04-05T14:46:58.383Z,98233.15
2023-04-05T14:49:26.558Z,98233.01
2023-04-05T14:51:55.002Z,98237.34
2023-04-05T14:54:23.383Z,98238.23
2023-04-05T14:56:53.868Z,98237.86
2023-04-05T14:59:23.976Z,98237.30
2023-04-05T15:01:53.611Z,98240.45
2023-04-05T15:04:22.203Z,98242.84
2023-04-05T15:06:50.404Z,98246.97
2023-04-05T15:09:18.644Z,98245.03
2023-04-05T15:11:50.157Z,98248.66
2023-04-05T15:14:30.715Z,98251.13
2023-04-05T15:17:01.016Z,98256.77
2023-04-05T15:19:30.746Z,98254.84
2023-04-05T15:21:59.966Z,98254.89
2023-04-05T15:24:29.574Z,98258.52
2023-04-05T15:27:02.302Z,98264.03
2023-04-05T15:29:35.305Z,98264.69
2023-04-05T15:32:03.915Z,98266.48
2023-04-05T15:34:32.222Z,98267.14
2023-04-05T15:37:00.475Z,98268.16
2023-04-05T15:39:29.077Z,98267.93
2023-04-05T15:41:57.966Z,98268.38
2023-04-05T15:44:26.808Z,98267.10
2023-04-05T15:46:55.365Z,98269.42
2023-04-05T15:49:28.169Z,98268.73
2023-04-05T15:52:00.503Z,98264.99
2023-04-05T15:54:30.448Z,98266.09
2023-04-05T15:56:59.170Z,98266.20
2023-04-05T15:59:30.362Z,98271.59
2023-04-05T16:01:58.667Z,98269.73
2023-04-05T16:04:28.061Z,98270.16
2023-04-05T16:06:59.793Z,98272.98
2023-04-05T16:09:28.308Z,98273.27
2023-04-05T16:11:56.985Z,98276.27
2023-04-05T16:14:32.182Z,98274.73
2023-04-05T16:17:01.098Z,98276.48
2023-04-05T16:19:29.568Z,98271.76
2023-04-05T16:21:57.869Z,98273.71
2023-04-05T16:24:27.752Z,98273.02
2023-04-05T16:26:56.966Z,98273.82
2023-04-05T16:29:25.691Z,98283.63
2023-04-05T16:31:54.267Z,98281.16
2023-04-05T16:34:22.996Z,98281.64
2023-04-05T16:36:51.734Z,98282.61
2023-04-05T16:39:19.901Z,98283.44
2023-04-05T16:41:48.085Z,98286.86
2023-04-05T16:44:16.857Z,98288.77
2023-04-05T16:46:47.382Z,98286.97
2023-04-05T16:49:15.941Z,98289.22
2023-04-05T16:51:45.351Z,98286.36
2023-04-05T16:54:15.429Z,98288.59
2023-04-05T16:56:43.612Z,98294.20
2023-04-05T16:59:12.139Z,98297.66
2023-04-05T17:01:40.985Z,98296.28
2023-04-05T17:04:10.043Z,98302.52
2023-04-05T17:06:38.754Z,98307.41
2023-04-05T17:09:07.042Z,98306.87
2023-04-05T17:11:35.222Z,98305.66
2023-04-05T17:14:07.072Z,98308.91
2023-04-05T17:16:35.938Z,98306.06
2023-04-05T17:19:04.653Z,98312.60
2023-04-05T17:21:38.666Z,98314.40
2023-04-05T17:24:07.098Z,98316.20
2023-04-05T17:26:35.399Z,98324.80
2023-04-05T17:29:03.721Z,98326.92
2023-04-05T17:31:33.524Z,98330.75
2023-04-05T17:34:02.170Z,98333.34
2023-04-05T17:36:30.560Z,98336.92
2023-04-05T17:38:59.459Z,98338.94
2023-04-05T17:41:28.260Z,98343.59
2023-04-05T17:43:56.610Z,98345.68
2023-04-05T17:46:34.357Z,98345.35
2023-04-05T17:49:09.044Z,98348.18
2023-04-05T17:51:37.555Z,98351.36
2023-04-05T17:54:05.824Z,98350.38
2023-04-05T17:56:34.406Z,98354.89
2023-04-05T17:59:04.300Z,98358.51
2023-04-05T18:04:45.825Z,98362.80
2023-04-05T18:07:14.407Z,98360.22
2023-04-05T18:10:08.912Z,98359.23
2023-04-05T18:12:37.418Z,98354.09
2023-04-05T18:15:06.375Z,98351.41
2023-04-05T18:17:35.279Z,98348.02
2023-04-05T18:20:05.326Z,98343.93
2023-04-05T18:22:39.247Z,98350.78
2023-04-05T18:25:09.287Z,98354.55
2023-04-05T18:27:39.152Z,98349.38
2023-04-05T18:30:08.656Z,98347.23
2023-04-05T18:32:41.562Z,98347.76
2023-04-05T18:35:10.223Z,98342.13
2023-04-05T18:37:39.716Z,98341.45
2023-04-05T18:40:11.750Z,98338.70
2023-04-05T18:42:40.373Z,98335.35
2023-04-05T18:45:09.332Z,98338.56
2023-04-05T18:47:37.668Z,98338.15
2023-04-05T18:50:10.167Z,98333.86
2023-04-05T18:52:38.612Z,98331.47
2023-04-05T18:55:08.424Z,98327.32
2023-04-05T18:57:37.084Z,98321.86
2023-04-05T19:00:06.686Z,98320.21
2023-04-05T19:02:35.245Z,98323.77
2023-04-05T19:05:03.829Z,98320.91
2023-04-05T19:07:33.409Z,98319.23
2023-04-05T19:10:01.835Z,98314.98
2023-04-05T19:12:30.711Z,98319.93
2023-04-05T19:14:58.996Z,98320.52
2023-04-05T19:17:27.722Z,98318.00
2023-04-05T19:19:55.975Z,98319.23
2023-04-05T19:22:24.214Z,98310.44
2023-04-05T19:24:54.740Z,98312.21
2023-04-05T19:27:23.188Z,98312.55
2023-04-05T19:29:52.014Z,98313.59
2023-04-05T19:32:20.604Z,98307.55
2023-04-05T19:34:48.932Z,98312.63
2023-04-05T19:37:18.117Z,98308.95
2023-04-05T19:39:48.321Z,98305.83
2023-04-05T19:42:19.432Z,98304.23
2023-04-05T19:44:57.991Z,98306.46
2023-04-05T19:47:26.661Z,98307.19
2023-04-05T19:49:59.815Z,98307.10
2023-04-05T19:52:47.729Z,98301.73
2023-04-05T19:55:32.785Z,98303.45
2023-04-05T19:58:03.992Z,98302.56
2023-04-05T20:00:43.421Z,98301.77
2023-04-05T20:03:37.403Z,98299.46
2023-04-05T20:06:09.489Z,98295.55
2023-04-05T20:08:39.505Z,98293.83
2023-04-05T20:11:10.907Z,98291.09
2023-04-05T20:13:51.894Z,98285.24
2023-04-05T20:16:26.941Z,98283.95
2023-04-05T20:19:03.295Z,98276.39
2023-04-05T20:21:33.368Z,98274.20
2023-04-05T20:24:01.996Z,98273.44
2023-04-05T20:26:31.550Z,98273.77
2023-04-05T20:29:01.678Z,98273.31
2023-04-05T20:31:33.650Z,98270.37
2023-04-05T20:34:12.574Z,98269.84
2023-04-05T20:36:47.514Z,98265.36
2023-04-05T20:39:16.084Z,98262.77
2023-04-05T20:41:46.569Z,98267.21
2023-04-05T20:44:16.212Z,98264.20
2023-04-05T20:46:46.952Z,98265.08
2023-04-05T20:49:16.286Z,98260.90
2023-04-05T20:51:45.082Z,98261.23
2023-04-05T20:54:13.804Z,98260.76
2023-04-05T20:56:44.069Z,98254.07
2023-04-05T20:59:12.656Z,98255.39
2023-04-05T21:01:42.889Z,98256.84
2023-04-05T21:04:11.786Z,98247.47
2023-04-05T21:09:27.868Z,98244.32
2023-04-05T21:11:56.606Z,98243.85
2023-04-05T21:14:24.993Z,98246.55
2023-04-05T21:16:55.746Z,98239.77
2023-04-05T21:19:24.266Z,98231.22
2023-04-05T21:21:52.730Z,98227.31
2023-04-05T21:24:21.070Z,98224.63
2023-04-05T21:26:49.224Z,98223.23
2023-04-05T21:29:18.730Z,98217.49
2023-04-05T21:31:47.867Z,98219.55
2023-04-05T21:34:16.281Z,98213.98
2023-04-05T21:36:49.148Z,98211.30
2023-04-05T21:39:17.516Z,98208.48
2023-04-05T21:47:07.826Z,98195.45
2023-04-05T21:49:39.949Z,98198.09
2023-04-05T21:52:08.789Z,98195.46
2023-04-05T21:54:37.226Z,98189.63
2023-04-05T21:57:06.089Z,98188.80
2023-04-05T21:59:34.613Z,98186.75
2023-04-05T22:02:07.676Z,98181.05
2023-04-05T22:04:36.678Z,98176.25
2023-04-05T22:07:06.277Z,98172.80
2023-04-05T22:09:35.185Z,98170.01
2023-04-05T22:12:03.970Z,98163.85
2023-04-05T22:14:37.243Z,98164.61
2023-04-05T22:17:05.646Z,98160.60
2023-04-05T22:19:38.727Z,98158.09
2023-04-05T22:22:14.459Z,98159.74
2023-04-05T22:24:45.366Z,98159.21
2023-04-05T22:27:14.182Z,98157.26
2023-04-05T22:29:45.507Z,98155.23
2023-04-05T22:32:16.891Z,98155.17
2023-04-05T22:34:45.277Z,98155.04
2023-04-05T22:37:16.452Z,98151.93
2023-04-05T22:39:47.562Z,98151.46
2023-04-05T22:42:26.635Z,98150.16
2023-04-05T22:44:58.270Z,98147.71
2023-04-05T22:47:27.492Z,98143.54
2023-04-05T22:49:56.217Z,98137.55
2023-04-05T22:52:24.719Z,98132.04
2023-04-05T22:54:53.223Z,98127.04
2023-04-05T22:57:21.456Z,98122.94
2023-04-05T22:59:49.798Z,98122.77
2023-04-05T23:02:18.392Z,98115.55
2023-04-05T23:04:48.578Z,98111.29
2023-04-05T23:07:17.099Z,98103.50
2023-04-05T23:09:48.619Z,98101.17
2023-04-05T23:12:17.806Z,98092.42
2023-04-05T23:14:50.627Z,98097.11
2023-04-05T23:17:21.311Z,98086.73
2023-04-05T23:19:54.615Z,98083.91
2023-04-05T23:22:25.090Z,98075.81
2023-04-05T23:25:07.967Z,98072.55
2023-04-05T23:27:36.417Z,98065.14
2023-04-05T23:30:07.538Z,98063.98
2023-04-05T23:32:36.810Z,98056.66
2023-04-05T23:35:05.408Z,98050.38
2023-04-05T23:37:36.926Z,98044.66
2023-04-05T23:40:06.311Z,98040.46
2023-04-05T23:42:37.482Z,98042.19
2023-04-05T23:45:09.009Z,98038.92
2023-04-05T23:47:38.852Z,98030.52
2023-04-05T23:50:08.674Z,98027.08
2023-04-05T23:52:37.363Z,98028.77
2023-04-05T23:55:10.345Z,98020.16
2023-04-05T23:57:39.432Z,98014.41
